Ana Sayfa
METAR-TAF:

METAR-TAF

Havaalanları :

Frederick, Oklahoma, Amerika Birleşik Devletleri

Enlem: 34-20-40N, Boylam: 098-58-59W, yükseklik: 382 m

Güncel hava durumu gözlemi

Rapor saat 13:53 UTC de 55 dakika önce yapıldı.
Rüzgar güney/güneybatıdan 15 kt
Sıcaklık 29°C
Nem 66%
Basınç 1014 hPa
Görüş mesafesi: 16.1 km
Açık gökyüzü

METAR: KFDR 171353Z AUTO 20015KT 10SM CLR 29/22 A2995 RMK AO2 SLP121 T02940222

Saat: 09:48 (14:48 UTC)


TAF: eksik

4.000'den fazla havaalanı için hava durumu gözlemleri ve tahminleri (METAR ve TAF raporları).

Kullanılabilir istasyonlar harita üzerinde sarı ve kırmızı noktalarla gösterilir.

İstasyonun adını görmek için fareyi noktanın üzerinde gezdirin.

Sonrasında hava gözlem ve tahminlerini görmek için tıklayın.

Haritayı değiştirmek için: yaklaştırmak için siyah artı işaretli yeşil düğmeye ve uzaklaştırmak için de eksi işaretli düğmeye hızla tıklayın; bitişik haritalar için yeşil okları kullanın.


METAR-TAF: